createdAt,value
2023-04-15T00:00:30.361Z,574.00
2023-04-15T00:01:30.351Z,575.00
2023-04-15T00:02:30.448Z,575.00
2023-04-15T00:03:30.594Z,573.00
2023-04-15T00:04:30.447Z,570.00
2023-04-15T00:05:30.346Z,566.00
2023-04-15T00:06:30.299Z,567.00
2023-04-15T00:07:30.294Z,566.00
2023-04-15T00:08:30.358Z,566.00
2023-04-15T00:09:30.667Z,566.00
2023-04-15T00:10:30.272Z,566.00
2023-04-15T00:11:30.283Z,567.00
2023-04-15T00:12:30.306Z,568.00
2023-04-15T00:13:30.288Z,569.00
2023-04-15T00:14:30.347Z,570.00
2023-04-15T00:15:30.407Z,570.00
2023-04-15T00:16:30.519Z,569.00
2023-04-15T00:17:30.552Z,568.00
2023-04-15T00:18:30.599Z,569.00
2023-04-15T00:19:30.681Z,569.00
2023-04-15T00:20:30.719Z,571.00
2023-04-15T00:21:30.790Z,572.00
2023-04-15T00:22:30.832Z,572.00
2023-04-15T00:23:31.201Z,572.00
2023-04-15T00:24:30.946Z,570.00
2023-04-15T00:25:31.022Z,568.00
2023-04-15T00:26:31.081Z,567.00
2023-04-15T00:27:31.140Z,567.00
2023-04-15T00:28:31.185Z,567.00
2023-04-15T00:29:31.289Z,564.00
2023-04-15T00:30:31.338Z,564.00
2023-04-15T00:31:31.393Z,564.00
2023-04-15T00:32:31.476Z,564.00
2023-04-15T00:33:31.524Z,563.00
2023-04-15T00:34:31.581Z,563.00
2023-04-15T00:35:31.622Z,566.00
2023-04-15T00:36:31.679Z,566.00
2023-04-15T00:37:31.737Z,566.00
2023-04-15T00:38:31.786Z,563.00
2023-04-15T00:39:31.840Z,564.00
2023-04-15T00:40:31.900Z,562.00
2023-04-15T00:41:31.963Z,562.00
2023-04-15T00:42:32.046Z,562.00
2023-04-15T00:43:32.123Z,561.00
2023-04-15T00:44:32.186Z,562.00
2023-04-15T00:45:32.230Z,564.00
2023-04-15T00:46:32.265Z,566.00
2023-04-15T00:47:32.349Z,568.00
2023-04-15T00:48:32.380Z,569.00
2023-04-15T00:49:32.446Z,569.00
2023-04-15T00:50:32.483Z,567.00
2023-04-15T00:51:32.538Z,566.00
2023-04-15T00:52:32.594Z,563.00
2023-04-15T00:53:32.652Z,562.00
2023-04-15T00:54:32.686Z,562.00
2023-04-15T00:55:32.720Z,565.00
2023-04-15T00:56:32.785Z,565.00
2023-04-15T00:57:32.826Z,565.00
2023-04-15T00:58:32.904Z,562.00
2023-04-15T00:59:33.007Z,559.00
2023-04-15T01:00:33.042Z,559.00
2023-04-15T01:01:33.110Z,559.00
2023-04-15T01:02:33.266Z,560.00
2023-04-15T01:03:33.358Z,560.00
2023-04-15T01:04:33.737Z,564.00
2023-04-15T01:05:33.300Z,567.00
2023-04-15T01:06:33.412Z,568.00
2023-04-15T01:07:33.469Z,570.00
2023-04-15T01:08:33.530Z,571.00
2023-04-15T01:09:33.569Z,571.00
2023-04-15T01:10:33.605Z,574.00
2023-04-15T01:11:33.665Z,573.00
2023-04-15T01:12:33.713Z,573.00
2023-04-15T01:13:33.761Z,572.00
2023-04-15T01:14:33.835Z,569.00
2023-04-15T01:15:33.835Z,570.00
2023-04-15T01:16:33.926Z,569.00
2023-04-15T01:17:33.999Z,569.00
2023-04-15T01:18:33.988Z,572.00
2023-04-15T01:19:34.091Z,570.00
2023-04-15T01:20:34.129Z,568.00
2023-04-15T01:21:34.186Z,568.00
2023-04-15T01:22:34.234Z,570.00
2023-04-15T01:23:34.294Z,571.00
2023-04-15T01:24:34.354Z,569.00
2023-04-15T01:25:34.404Z,569.00
2023-04-15T01:26:34.449Z,566.00
2023-04-15T01:27:34.515Z,564.00
2023-04-15T01:28:34.593Z,563.00
2023-04-15T01:29:34.656Z,566.00
2023-04-15T01:30:34.696Z,564.00
2023-04-15T01:31:34.761Z,563.00
2023-04-15T01:32:34.841Z,562.00
2023-04-15T01:33:34.895Z,562.00
2023-04-15T01:34:35.953Z,560.00
2023-04-15T01:35:34.981Z,559.00
2023-04-15T01:36:35.030Z,557.00
2023-04-15T01:37:35.104Z,559.00
2023-04-15T01:38:35.216Z,557.00
2023-04-15T01:39:35.247Z,558.00
2023-04-15T01:40:35.260Z,558.00
2023-04-15T01:41:35.301Z,556.00
2023-04-15T01:42:35.382Z,556.00
2023-04-15T01:43:35.400Z,555.00
2023-04-15T01:44:35.452Z,556.00
2023-04-15T01:45:35.532Z,554.00
2023-04-15T01:46:35.566Z,557.00
2023-04-15T01:47:35.542Z,557.00
2023-04-15T01:48:35.587Z,557.00
2023-04-15T01:49:35.646Z,557.00
2023-04-15T01:50:35.653Z,552.00
2023-04-15T01:51:35.741Z,550.00
2023-04-15T01:52:35.763Z,549.00
2023-04-15T01:53:35.788Z,547.00
2023-04-15T01:54:35.846Z,549.00
2023-04-15T01:55:35.902Z,550.00
2023-04-15T01:56:35.940Z,549.00
2023-04-15T01:57:36.015Z,550.00
2023-04-15T01:58:36.064Z,549.00
2023-04-15T01:59:36.090Z,550.00
2023-04-15T02:00:36.184Z,550.00
2023-04-15T02:01:36.192Z,551.00
2023-04-15T02:02:36.316Z,550.00
2023-04-15T02:03:36.424Z,550.00
2023-04-15T02:04:36.321Z,554.00
2023-04-15T02:05:36.357Z,554.00
2023-04-15T02:06:36.440Z,553.00
2023-04-15T02:07:36.455Z,551.00
2023-04-15T02:08:36.497Z,552.00
2023-04-15T02:09:36.562Z,551.00
2023-04-15T02:10:36.590Z,551.00
2023-04-15T02:11:36.630Z,552.00
2023-04-15T02:12:36.680Z,549.00
2023-04-15T02:13:36.765Z,548.00
2023-04-15T02:14:36.847Z,548.00
2023-04-15T02:15:36.865Z,551.00
2023-04-15T02:16:36.995Z,551.00
2023-04-15T02:17:36.970Z,550.00
2023-04-15T02:18:36.975Z,548.00
2023-04-15T02:19:37.024Z,547.00
2023-04-15T02:20:37.033Z,546.00
2023-04-15T02:21:37.143Z,545.00
2023-04-15T02:22:37.133Z,545.00
2023-04-15T02:23:37.170Z,545.00
2023-04-15T02:24:37.235Z,544.00
2023-04-15T02:25:37.271Z,548.00
2023-04-15T02:26:37.317Z,548.00
2023-04-15T02:27:37.344Z,547.00
2023-04-15T02:28:37.398Z,547.00
2023-04-15T02:29:37.420Z,545.00
2023-04-15T02:30:37.451Z,545.00
2023-04-15T02:31:37.566Z,546.00
2023-04-15T02:32:37.528Z,545.00
2023-04-15T02:33:37.556Z,543.00
2023-04-15T02:34:37.547Z,542.00
2023-04-15T02:35:37.572Z,541.00
2023-04-15T02:36:37.590Z,542.00
2023-04-15T02:37:37.656Z,543.00
2023-04-15T02:38:37.666Z,544.00
2023-04-15T02:39:38.218Z,543.00
2023-04-15T02:40:37.777Z,541.00
2023-04-15T02:41:37.818Z,538.00
2023-04-15T02:42:37.908Z,536.00
2023-04-15T02:43:37.932Z,537.00
2023-04-15T02:44:37.976Z,536.00
2023-04-15T02:45:38.041Z,536.00
2023-04-15T02:46:38.036Z,534.00
2023-04-15T02:47:38.095Z,534.00
2023-04-15T02:48:38.058Z,531.00
2023-04-15T02:49:38.064Z,532.00
2023-04-15T02:50:38.056Z,530.00
2023-04-15T02:51:38.056Z,531.00
2023-04-15T02:52:38.061Z,528.00
2023-04-15T02:53:38.067Z,529.00
2023-04-15T02:54:38.086Z,528.00
2023-04-15T02:55:38.091Z,525.00
2023-04-15T02:56:38.091Z,524.00
2023-04-15T02:57:38.072Z,524.00
2023-04-15T02:58:38.095Z,526.00
2023-04-15T02:59:38.165Z,527.00
2023-04-15T03:00:38.116Z,527.00
2023-04-15T03:01:38.150Z,524.00
2023-04-15T03:02:38.282Z,524.00
2023-04-15T03:03:38.263Z,525.00
2023-04-15T03:04:38.223Z,527.00
2023-04-15T03:05:38.230Z,525.00
2023-04-15T03:06:38.246Z,525.00
2023-04-15T03:07:38.288Z,524.00
2023-04-15T03:08:38.300Z,523.00
2023-04-15T03:09:38.354Z,523.00
2023-04-15T03:10:38.339Z,521.00
2023-04-15T03:11:38.388Z,520.00
2023-04-15T03:12:38.395Z,521.00
2023-04-15T03:13:38.394Z,520.00
2023-04-15T03:14:38.421Z,518.00
2023-04-15T03:15:38.455Z,519.00
2023-04-15T03:16:38.433Z,519.00
2023-04-15T03:17:38.576Z,518.00
2023-04-15T03:18:38.464Z,521.00
2023-04-15T03:19:38.564Z,522.00
2023-04-15T03:20:38.604Z,523.00
2023-04-15T03:21:38.544Z,522.00
2023-04-15T03:22:38.577Z,523.00
2023-04-15T03:23:38.570Z,524.00
2023-04-15T03:24:38.627Z,527.00
2023-04-15T03:25:38.631Z,528.00
2023-04-15T03:26:38.585Z,529.00
2023-04-15T03:27:38.617Z,528.00
2023-04-15T03:28:38.628Z,527.00
2023-04-15T03:29:38.665Z,527.00
2023-04-15T03:30:38.636Z,526.00
2023-04-15T03:31:38.640Z,526.00
2023-04-15T03:32:38.676Z,526.00
2023-04-15T03:33:38.675Z,527.00
2023-04-15T03:34:38.701Z,528.00
2023-04-15T03:35:38.700Z,526.00
2023-04-15T03:36:38.694Z,528.00
2023-04-15T03:37:38.665Z,528.00
2023-04-15T03:38:38.652Z,525.00
2023-04-15T03:39:38.690Z,526.00
2023-04-15T03:40:38.655Z,526.00
2023-04-15T03:41:38.680Z,523.00
2023-04-15T03:42:38.678Z,523.00
2023-04-15T03:43:38.658Z,523.00
2023-04-15T03:44:38.695Z,521.00
2023-04-15T03:45:38.702Z,521.00
2023-04-15T03:46:38.759Z,523.00
2023-04-15T03:47:38.753Z,522.00
2023-04-15T03:48:38.701Z,522.00
2023-04-15T03:49:38.746Z,521.00
2023-04-15T03:50:38.738Z,518.00
2023-04-15T03:51:38.734Z,520.00
2023-04-15T03:52:38.742Z,521.00
2023-04-15T03:53:38.754Z,518.00
2023-04-15T03:54:38.772Z,515.00
2023-04-15T03:55:38.736Z,515.00
2023-04-15T03:56:38.731Z,514.00
2023-04-15T03:57:38.754Z,518.00
2023-04-15T03:58:38.737Z,519.00
2023-04-15T03:59:38.753Z,517.00
2023-04-15T04:00:38.730Z,515.00
2023-04-15T04:01:38.755Z,516.00
2023-04-15T04:02:39.124Z,515.00
2023-04-15T04:03:38.855Z,517.00
2023-04-15T04:04:38.787Z,519.00
2023-04-15T04:05:38.746Z,517.00
2023-04-15T04:06:38.759Z,515.00
2023-04-15T04:07:38.778Z,517.00
2023-04-15T04:08:38.787Z,518.00
2023-04-15T04:09:38.803Z,515.00
2023-04-15T04:10:38.791Z,512.00
2023-04-15T04:11:38.803Z,512.00
2023-04-15T04:12:38.740Z,513.00
2023-04-15T04:13:38.786Z,513.00
2023-04-15T04:14:38.796Z,515.00
2023-04-15T04:15:38.778Z,515.00
2023-04-15T04:16:38.806Z,514.00
2023-04-15T04:17:38.793Z,512.00
2023-04-15T04:18:38.753Z,514.00
2023-04-15T04:19:38.773Z,514.00
2023-04-15T04:20:38.749Z,514.00
2023-04-15T04:21:38.724Z,517.00
2023-04-15T04:22:38.724Z,516.00
2023-04-15T04:23:38.743Z,514.00
2023-04-15T04:24:38.745Z,513.00
2023-04-15T04:25:38.742Z,509.00
2023-04-15T04:26:38.714Z,506.00
2023-04-15T04:27:38.717Z,508.00
2023-04-15T04:28:38.726Z,509.00
2023-04-15T04:29:38.791Z,509.00
2023-04-15T04:30:38.727Z,507.00
2023-04-15T04:31:38.732Z,505.00
2023-04-15T04:32:38.737Z,507.00
2023-04-15T04:33:38.710Z,506.00
2023-04-15T04:34:38.735Z,504.00
2023-04-15T04:35:38.756Z,504.00
2023-04-15T04:36:38.711Z,506.00
2023-04-15T04:37:38.714Z,505.00
2023-04-15T04:38:38.746Z,502.00
2023-04-15T04:39:38.749Z,499.00
2023-04-15T04:40:38.759Z,500.00
2023-04-15T04:41:38.752Z,498.00
2023-04-15T04:42:40.001Z,500.00
2023-04-15T04:43:38.754Z,501.00
2023-04-15T04:44:38.770Z,502.00
2023-04-15T04:45:38.735Z,505.00
2023-04-15T04:46:38.724Z,505.00
2023-04-15T04:47:38.743Z,502.00
2023-04-15T04:48:38.742Z,503.00
2023-04-15T04:49:38.728Z,500.00
2023-04-15T04:50:38.704Z,503.00
2023-04-15T04:51:38.714Z,502.00
2023-04-15T04:52:38.693Z,503.00
2023-04-15T04:53:38.690Z,503.00
2023-04-15T04:54:38.757Z,503.00
2023-04-15T04:55:38.702Z,505.00
2023-04-15T04:56:38.711Z,502.00
2023-04-15T04:57:38.767Z,503.00
2023-04-15T04:58:38.709Z,502.00
2023-04-15T04:59:38.737Z,503.00
2023-04-15T05:00:38.718Z,505.00
2023-04-15T05:01:38.784Z,505.00
2023-04-15T05:02:38.845Z,505.00
2023-04-15T05:03:38.814Z,504.00
2023-04-15T05:04:38.737Z,506.00
2023-04-15T05:05:38.697Z,505.00
2023-04-15T05:06:38.709Z,504.00
2023-04-15T05:07:38.699Z,506.00
2023-04-15T05:08:40.326Z,504.00
2023-04-15T05:09:38.690Z,502.00
2023-04-15T05:10:38.692Z,501.00
2023-04-15T05:11:38.691Z,505.00
2023-04-15T05:12:38.676Z,505.00
2023-04-15T05:13:38.664Z,506.00
2023-04-15T05:14:38.738Z,506.00
2023-04-15T05:15:38.723Z,507.00
2023-04-15T05:16:38.697Z,505.00
2023-04-15T05:17:38.752Z,503.00
2023-04-15T05:18:38.700Z,502.00
2023-04-15T05:19:38.728Z,501.00
2023-04-15T05:20:38.673Z,499.00
2023-04-15T05:21:39.533Z,499.00
2023-04-15T05:22:38.683Z,499.00
2023-04-15T05:23:38.662Z,500.00
2023-04-15T05:24:38.734Z,498.00
2023-04-15T05:25:38.665Z,496.00
2023-04-15T05:26:38.672Z,496.00
2023-04-15T05:27:38.703Z,496.00
2023-04-15T05:28:38.669Z,497.00
2023-04-15T05:29:38.710Z,497.00
2023-04-15T05:30:38.659Z,493.00
2023-04-15T05:31:38.790Z,493.00
2023-04-15T05:32:38.723Z,494.00
2023-04-15T05:33:38.672Z,496.00
2023-04-15T05:34:38.692Z,495.00
2023-04-15T05:35:38.696Z,495.00
2023-04-15T05:36:38.686Z,493.00
2023-04-15T05:37:38.714Z,492.00
2023-04-15T05:38:38.711Z,492.00
2023-04-15T05:39:38.708Z,493.00
2023-04-15T05:40:38.665Z,491.00
2023-04-15T05:41:38.671Z,492.00
2023-04-15T05:42:38.664Z,492.00
2023-04-15T05:43:38.672Z,493.00
2023-04-15T05:44:38.706Z,492.00
2023-04-15T05:45:38.703Z,494.00
2023-04-15T05:46:38.761Z,493.00
2023-04-15T05:47:38.758Z,491.00
2023-04-15T05:48:38.675Z,491.00
2023-04-15T05:49:38.702Z,493.00
2023-04-15T05:50:38.695Z,494.00
2023-04-15T05:51:38.684Z,494.00
2023-04-15T05:52:38.684Z,493.00
2023-04-15T05:53:38.684Z,492.00
2023-04-15T05:54:38.999Z,489.00
2023-04-15T05:55:38.727Z,489.00
2023-04-15T05:56:38.698Z,487.00
2023-04-15T05:57:38.723Z,488.00
2023-04-15T05:58:38.695Z,487.00
2023-04-15T05:59:38.693Z,487.00
2023-04-15T06:00:38.712Z,488.00
2023-04-15T06:01:38.724Z,484.00
2023-04-15T06:02:38.860Z,485.00
2023-04-15T06:03:38.830Z,485.00
2023-04-15T06:04:39.032Z,486.00
2023-04-15T06:05:38.699Z,487.00
2023-04-15T06:06:38.712Z,487.00
2023-04-15T06:07:38.712Z,487.00
2023-04-15T06:08:38.684Z,489.00
2023-04-15T06:09:38.701Z,490.00
2023-04-15T06:10:38.714Z,490.00
2023-04-15T06:11:38.695Z,489.00
2023-04-15T06:12:38.716Z,489.00
2023-04-15T06:13:38.681Z,488.00
2023-04-15T06:14:38.689Z,486.00
2023-04-15T06:15:38.703Z,484.00
2023-04-15T06:16:38.867Z,486.00
2023-04-15T06:17:38.744Z,489.00
2023-04-15T06:18:38.693Z,490.00
2023-04-15T06:19:38.715Z,491.00
2023-04-15T06:20:38.707Z,492.00
2023-04-15T06:21:38.701Z,491.00
2023-04-15T06:22:38.700Z,490.00
2023-04-15T06:23:38.710Z,489.00
2023-04-15T06:24:38.716Z,488.00
2023-04-15T06:25:38.760Z,489.00
2023-04-15T06:26:38.791Z,489.00
2023-04-15T06:27:38.744Z,490.00
2023-04-15T06:28:38.728Z,488.00
2023-04-15T06:29:38.767Z,489.00
2023-04-15T06:30:38.734Z,488.00
2023-04-15T06:31:38.820Z,484.00
2023-04-15T06:32:38.771Z,483.00
2023-04-15T06:33:38.758Z,484.00
2023-04-15T06:34:38.736Z,483.00
2023-04-15T06:35:38.744Z,479.00
2023-04-15T06:36:38.770Z,478.00
2023-04-15T06:37:38.780Z,480.00
2023-04-15T06:38:38.787Z,481.00
2023-04-15T06:39:38.796Z,480.00
2023-04-15T06:40:38.789Z,479.00
2023-04-15T06:41:38.818Z,479.00
2023-04-15T06:42:38.805Z,481.00
2023-04-15T06:43:38.830Z,482.00
2023-04-15T06:44:38.831Z,483.00
2023-04-15T06:45:38.851Z,480.00
2023-04-15T06:46:38.815Z,478.00
2023-04-15T06:47:38.886Z,478.00
2023-04-15T06:48:38.836Z,481.00
2023-04-15T06:49:38.815Z,482.00
2023-04-15T06:50:38.844Z,481.00
2023-04-15T06:51:38.842Z,481.00
2023-04-15T06:52:38.866Z,478.00
2023-04-15T06:53:38.843Z,475.00
2023-04-15T06:54:38.840Z,475.00
2023-04-15T06:55:38.866Z,477.00
2023-04-15T06:56:39.323Z,480.00
2023-04-15T06:57:38.884Z,479.00
2023-04-15T06:58:38.872Z,480.00
2023-04-15T06:59:38.903Z,480.00
2023-04-15T07:00:38.876Z,481.00
2023-04-15T07:01:38.880Z,480.00
2023-04-15T07:02:39.104Z,480.00
2023-04-15T07:03:38.898Z,480.00
2023-04-15T07:04:38.966Z,480.00
2023-04-15T07:05:38.900Z,478.00
2023-04-15T07:06:38.898Z,480.00
2023-04-15T07:07:38.885Z,479.00
2023-04-15T07:08:38.933Z,480.00
2023-04-15T07:09:38.911Z,479.00
2023-04-15T07:10:38.914Z,479.00
2023-04-15T07:11:38.932Z,479.00
2023-04-15T07:12:38.886Z,477.00
2023-04-15T07:13:38.893Z,476.00
2023-04-15T07:14:38.930Z,476.00
2023-04-15T07:15:38.916Z,475.00
2023-04-15T07:16:38.918Z,474.00
2023-04-15T07:17:38.941Z,474.00
2023-04-15T07:18:38.917Z,475.00
2023-04-15T07:19:38.940Z,473.00
2023-04-15T07:20:38.939Z,474.00
2023-04-15T07:21:41.218Z,473.00
2023-04-15T07:22:38.907Z,474.00
2023-04-15T07:23:38.965Z,473.00
2023-04-15T07:24:38.909Z,474.00
2023-04-15T07:25:38.892Z,473.00
2023-04-15T07:26:38.880Z,473.00
2023-04-15T07:27:38.896Z,472.00
2023-04-15T07:28:38.897Z,474.00
2023-04-15T07:29:38.899Z,472.00
2023-04-15T07:30:38.882Z,471.00
2023-04-15T07:31:38.863Z,469.00
2023-04-15T07:32:38.882Z,470.00
2023-04-15T07:33:38.838Z,471.00
2023-04-15T07:34:38.881Z,469.00
2023-04-15T07:35:38.837Z,469.00
2023-04-15T07:36:38.830Z,469.00
2023-04-15T07:37:38.808Z,468.00
2023-04-15T07:38:38.806Z,468.00
2023-04-15T07:39:39.812Z,467.00
2023-04-15T07:40:38.803Z,467.00
2023-04-15T07:41:38.790Z,467.00
2023-04-15T07:42:41.182Z,469.00
2023-04-15T07:43:38.943Z,469.00
2023-04-15T07:44:39.005Z,470.00
2023-04-15T07:45:39.032Z,470.00
2023-04-15T07:46:39.183Z,471.00
2023-04-15T07:47:39.359Z,473.00
2023-04-15T07:48:39.099Z,471.00
2023-04-15T07:49:39.084Z,470.00
2023-04-15T07:50:39.098Z,471.00
2023-04-15T07:51:39.115Z,471.00
2023-04-15T07:52:39.132Z,469.00
2023-04-15T07:53:39.101Z,468.00
2023-04-15T07:54:39.119Z,467.00
2023-04-15T07:55:39.138Z,467.00
2023-04-15T07:56:39.104Z,466.00
2023-04-15T07:57:39.149Z,466.00
2023-04-15T07:58:39.116Z,464.00
2023-04-15T07:59:39.118Z,464.00
2023-04-15T08:00:39.107Z,465.00
2023-04-15T08:01:39.138Z,466.00
2023-04-15T08:02:40.541Z,469.00
2023-04-15T08:03:39.182Z,469.00
2023-04-15T08:04:39.335Z,468.00
2023-04-15T08:05:39.094Z,469.00
2023-04-15T08:06:39.099Z,469.00
2023-04-15T08:07:39.162Z,464.00
2023-04-15T08:08:39.139Z,462.00
2023-04-15T08:09:39.110Z,463.00
2023-04-15T08:10:39.129Z,464.00
2023-04-15T08:11:39.110Z,464.00
2023-04-15T08:12:39.128Z,464.00
2023-04-15T08:13:39.095Z,464.00
2023-04-15T08:14:39.119Z,463.00
2023-04-15T08:15:39.196Z,464.00
2023-04-15T08:16:39.273Z,463.00
2023-04-15T08:17:39.132Z,464.00
2023-04-15T08:18:39.098Z,464.00
2023-04-15T08:19:39.120Z,465.00
2023-04-15T08:20:39.111Z,464.00
2023-04-15T08:21:39.088Z,464.00
2023-04-15T08:22:39.092Z,464.00
2023-04-15T08:23:39.087Z,464.00
2023-04-15T08:24:39.200Z,461.00
2023-04-15T08:25:39.092Z,460.00
2023-04-15T08:26:39.081Z,459.00
2023-04-15T08:27:39.093Z,459.00
2023-04-15T08:28:39.088Z,461.00
2023-04-15T08:29:39.083Z,463.00
2023-04-15T08:30:39.096Z,464.00
2023-04-15T08:31:39.153Z,462.00
2023-04-15T08:32:39.120Z,460.00
2023-04-15T08:33:39.126Z,460.00
2023-04-15T08:34:39.133Z,459.00
2023-04-15T08:35:39.137Z,458.00
2023-04-15T08:36:39.094Z,458.00
2023-04-15T08:37:39.110Z,458.00
2023-04-15T08:38:39.127Z,459.00
2023-04-15T08:39:39.129Z,458.00
2023-04-15T08:40:39.116Z,460.00
2023-04-15T08:41:39.090Z,458.00
2023-04-15T08:42:39.114Z,458.00
2023-04-15T08:43:39.095Z,458.00
2023-04-15T08:44:39.113Z,457.00
2023-04-15T08:45:39.091Z,456.00
2023-04-15T08:46:39.138Z,457.00
2023-04-15T08:47:39.168Z,456.00
2023-04-15T08:48:39.090Z,455.00
2023-04-15T08:49:39.089Z,453.00
2023-04-15T08:50:39.103Z,453.00
2023-04-15T08:51:39.095Z,454.00
2023-04-15T08:52:39.084Z,456.00
2023-04-15T08:53:39.086Z,460.00
2023-04-15T08:54:39.094Z,461.00
2023-04-15T08:55:39.114Z,459.00
2023-04-15T08:56:39.159Z,456.00
2023-04-15T08:57:39.093Z,455.00
2023-04-15T08:58:39.094Z,456.00
2023-04-15T08:59:39.857Z,456.00
2023-04-15T09:00:39.096Z,454.00
2023-04-15T09:01:39.140Z,453.00
2023-04-15T09:02:39.278Z,454.00
2023-04-15T09:03:39.127Z,455.00
2023-04-15T09:04:39.122Z,455.00
2023-04-15T09:05:39.116Z,455.00
2023-04-15T09:06:39.078Z,456.00
2023-04-15T09:07:39.082Z,457.00
2023-04-15T09:08:39.098Z,457.00
2023-04-15T09:09:39.094Z,455.00
2023-04-15T09:10:39.083Z,455.00
2023-04-15T09:11:39.138Z,455.00
2023-04-15T09:12:39.083Z,452.00
2023-04-15T09:13:39.091Z,453.00
2023-04-15T09:14:39.082Z,455.00
2023-04-15T09:15:39.077Z,454.00
2023-04-15T09:16:39.084Z,454.00
2023-04-15T09:17:39.131Z,452.00
2023-04-15T09:18:39.091Z,453.00
2023-04-15T09:19:39.070Z,450.00
2023-04-15T09:20:39.069Z,451.00
2023-04-15T09:21:39.050Z,453.00
2023-04-15T09:22:39.065Z,451.00
2023-04-15T09:23:39.083Z,453.00
2023-04-15T09:24:39.123Z,452.00
2023-04-15T09:25:39.114Z,454.00
2023-04-15T09:26:39.084Z,457.00
2023-04-15T09:27:39.106Z,456.00
2023-04-15T09:28:39.072Z,455.00
2023-04-15T09:29:39.088Z,455.00
2023-04-15T09:30:39.113Z,457.00
2023-04-15T09:31:39.130Z,457.00
2023-04-15T09:32:39.171Z,456.00
2023-04-15T09:33:39.367Z,458.00
2023-04-15T09:34:39.269Z,455.00
2023-04-15T09:35:39.256Z,452.00
2023-04-15T09:36:39.240Z,449.00
2023-04-15T09:37:39.276Z,450.00
2023-04-15T09:38:39.299Z,449.00
2023-04-15T09:39:39.318Z,450.00
2023-04-15T09:40:39.338Z,449.00
2023-04-15T09:41:39.412Z,448.00
2023-04-15T09:42:39.395Z,446.00
2023-04-15T09:43:39.459Z,448.00
2023-04-15T09:44:39.459Z,446.00
2023-04-15T09:45:39.501Z,446.00
2023-04-15T09:46:39.544Z,447.00
2023-04-15T09:47:39.569Z,449.00
2023-04-15T09:48:39.584Z,450.00
2023-04-15T09:49:39.637Z,450.00
2023-04-15T09:50:39.669Z,452.00
2023-04-15T09:51:39.707Z,452.00
2023-04-15T09:52:39.764Z,452.00
2023-04-15T09:53:39.836Z,450.00
2023-04-15T09:54:39.903Z,450.00
2023-04-15T09:55:39.980Z,450.00
2023-04-15T09:56:39.997Z,449.00
2023-04-15T09:57:40.065Z,450.00
2023-04-15T09:58:40.102Z,451.00
2023-04-15T09:59:40.155Z,452.00
2023-04-15T10:00:40.231Z,451.00
2023-04-15T10:01:40.369Z,451.00
2023-04-15T10:02:40.407Z,451.00
2023-04-15T10:03:40.465Z,451.00
2023-04-15T10:04:40.468Z,452.00
2023-04-15T10:05:40.472Z,452.00
2023-04-15T10:06:40.544Z,450.00
2023-04-15T10:07:40.600Z,449.00
2023-04-15T10:08:40.646Z,450.00
2023-04-15T10:09:40.875Z,451.00
2023-04-15T10:10:40.758Z,449.00
2023-04-15T10:11:40.830Z,448.00
2023-04-15T10:12:40.914Z,450.00
2023-04-15T10:13:40.946Z,450.00
2023-04-15T10:14:41.023Z,448.00
2023-04-15T10:15:41.114Z,450.00
2023-04-15T10:16:41.188Z,451.00
2023-04-15T10:17:41.256Z,455.00
2023-04-15T10:18:41.270Z,455.00
2023-04-15T10:19:41.338Z,453.00
2023-04-15T10:20:41.413Z,452.00
2023-04-15T10:21:41.448Z,450.00
2023-04-15T10:22:41.499Z,449.00
2023-04-15T10:23:41.565Z,447.00
2023-04-15T10:24:41.624Z,448.00
2023-04-15T10:25:41.710Z,451.00
2023-04-15T10:26:41.776Z,452.00
2023-04-15T10:27:41.803Z,453.00
2023-04-15T10:28:41.867Z,454.00
2023-04-15T10:29:41.949Z,453.00
2023-04-15T10:30:42.007Z,454.00
2023-04-15T10:31:42.131Z,454.00
2023-04-15T10:32:42.147Z,452.00
2023-04-15T10:33:42.227Z,452.00
2023-04-15T10:34:42.233Z,453.00
2023-04-15T10:35:42.301Z,454.00
2023-04-15T10:36:42.372Z,453.00
2023-04-15T10:37:42.442Z,454.00
2023-04-15T10:38:42.465Z,454.00
2023-04-15T10:39:42.531Z,453.00
2023-04-15T10:40:42.588Z,455.00
2023-04-15T10:41:42.662Z,454.00
2023-04-15T10:42:42.691Z,453.00
2023-04-15T10:43:42.756Z,452.00
2023-04-15T10:44:42.885Z,448.00
2023-04-15T10:45:42.903Z,447.00
2023-04-15T10:46:43.045Z,447.00
2023-04-15T10:47:43.007Z,447.00
2023-04-15T10:48:43.058Z,445.00
2023-04-15T10:49:43.120Z,446.00
2023-04-15T10:50:43.193Z,447.00
2023-04-15T10:51:43.274Z,449.00
2023-04-15T10:52:43.328Z,452.00
2023-04-15T10:53:43.352Z,453.00
2023-04-15T10:54:43.433Z,450.00
2023-04-15T10:55:43.494Z,449.00
2023-04-15T10:56:43.561Z,449.00
2023-04-15T10:57:43.621Z,449.00
2023-04-15T10:58:43.650Z,448.00
2023-04-15T10:59:43.722Z,448.00
2023-04-15T11:00:43.790Z,449.00
2023-04-15T11:01:43.961Z,447.00
2023-04-15T11:02:44.159Z,445.00
2023-04-15T11:03:44.212Z,446.00
2023-04-15T11:04:44.068Z,448.00
2023-04-15T11:05:44.088Z,450.00
2023-04-15T11:06:44.160Z,452.00
2023-04-15T11:07:44.223Z,452.00
2023-04-15T11:08:44.286Z,452.00
2023-04-15T11:09:44.363Z,451.00
2023-04-15T11:10:44.441Z,447.00
2023-04-15T11:11:44.942Z,446.00
2023-04-15T11:12:44.527Z,445.00
2023-04-15T11:13:44.593Z,444.00
2023-04-15T11:14:44.663Z,443.00
2023-04-15T11:15:44.789Z,444.00
2023-04-15T11:16:44.857Z,444.00
2023-04-15T11:17:46.509Z,444.00
2023-04-15T11:18:44.859Z,449.00
2023-04-15T11:19:44.926Z,449.00
2023-04-15T11:20:45.017Z,447.00
2023-04-15T11:21:45.087Z,446.00
2023-04-15T11:22:45.172Z,451.00
2023-04-15T11:23:45.189Z,451.00
2023-04-15T11:24:45.261Z,449.00
2023-04-15T11:25:45.309Z,447.00
2023-04-15T11:26:45.346Z,448.00
2023-04-15T11:27:45.420Z,447.00
2023-04-15T11:28:45.472Z,448.00
2023-04-15T11:29:45.546Z,448.00
2023-04-15T11:30:45.627Z,448.00
2023-04-15T11:31:45.720Z,447.00
2023-04-15T11:32:45.774Z,445.00
2023-04-15T11:33:45.772Z,444.00
2023-04-15T11:34:45.813Z,441.00
2023-04-15T11:35:45.919Z,441.00
2023-04-15T11:36:45.930Z,440.00
2023-04-15T11:37:46.003Z,440.00
2023-04-15T11:38:46.094Z,438.00
2023-04-15T11:39:46.154Z,438.00
2023-04-15T11:40:47.144Z,441.00
2023-04-15T11:41:46.246Z,441.00
2023-04-15T11:42:49.878Z,443.00
2023-04-15T11:43:46.302Z,441.00
2023-04-15T11:44:46.285Z,440.00
2023-04-15T11:45:46.368Z,440.00
2023-04-15T11:46:46.308Z,441.00
2023-04-15T11:47:46.280Z,440.00
2023-04-15T11:48:46.282Z,440.00
2023-04-15T11:49:46.269Z,443.00
2023-04-15T11:50:46.257Z,444.00
2023-04-15T11:51:46.282Z,443.00
2023-04-15T11:52:46.234Z,442.00
2023-04-15T11:53:46.287Z,444.00
2023-04-15T11:54:46.238Z,445.00
2023-04-15T11:55:46.251Z,445.00
2023-04-15T11:56:46.228Z,444.00
2023-04-15T11:57:46.214Z,441.00
2023-04-15T11:58:46.391Z,442.00
2023-04-15T11:59:46.424Z,442.00
2023-04-15T12:00:46.201Z,442.00
2023-04-15T12:01:46.192Z,442.00
2023-04-15T12:02:46.313Z,444.00
2023-04-15T12:03:46.299Z,443.00
2023-04-15T12:04:46.298Z,444.00
2023-04-15T12:05:46.414Z,444.00
2023-04-15T12:06:46.197Z,442.00
2023-04-15T12:07:46.234Z,445.00
2023-04-15T12:08:46.292Z,446.00
2023-04-15T12:09:46.352Z,446.00
2023-04-15T12:10:46.427Z,443.00
2023-04-15T12:11:46.489Z,443.00
2023-04-15T12:12:46.556Z,441.00
2023-04-15T12:13:46.657Z,441.00
2023-04-15T12:14:46.662Z,442.00
2023-04-15T12:15:46.763Z,444.00
2023-04-15T12:16:49.762Z,445.00
2023-04-15T12:17:51.379Z,446.00
2023-04-15T12:18:47.770Z,447.00
2023-04-15T12:19:46.784Z,445.00
2023-04-15T12:20:46.768Z,446.00
2023-04-15T12:21:46.744Z,443.00
2023-04-15T12:22:46.768Z,446.00
2023-04-15T12:23:46.744Z,445.00
2023-04-15T12:24:46.741Z,446.00
2023-04-15T12:25:46.747Z,446.00
2023-04-15T12:26:46.737Z,446.00
2023-04-15T12:27:46.786Z,447.00
2023-04-15T12:28:46.848Z,446.00